createdAt,value
2023-05-22T00:01:43.773Z,40.89
2023-05-22T00:04:30.244Z,40.96
2023-05-22T00:07:16.449Z,40.97
2023-05-22T00:10:02.512Z,41.13
2023-05-22T00:12:48.507Z,41.12
2023-05-22T00:15:34.450Z,40.98
2023-05-22T00:18:20.381Z,41.08
2023-05-22T00:21:06.468Z,41.15
2023-05-22T00:23:52.249Z,41.23
2023-05-22T00:26:38.141Z,41.33
2023-05-22T00:29:24.003Z,41.52
2023-05-22T00:32:09.758Z,41.56
2023-05-22T00:34:55.951Z,41.45
2023-05-22T00:37:41.760Z,41.56
2023-05-22T00:40:27.685Z,41.51
2023-05-22T00:43:14.664Z,41.60
2023-05-22T00:46:01.045Z,41.64
2023-05-22T00:48:48.506Z,41.79
2023-05-22T00:51:34.591Z,41.84
2023-05-22T00:54:20.887Z,41.86
2023-05-22T00:57:07.345Z,42.01
2023-05-22T00:59:53.699Z,42.02
2023-05-22T01:02:43.119Z,41.83
2023-05-22T01:05:29.419Z,41.91
2023-05-22T01:08:15.654Z,41.93
2023-05-22T01:11:07.431Z,42.11
2023-05-22T01:13:56.649Z,42.22
2023-05-22T01:16:46.894Z,42.04
2023-05-22T01:20:05.991Z,42.76
2023-05-22T01:23:11.924Z,42.38
2023-05-22T01:26:37.605Z,42.85
2023-05-22T01:29:23.525Z,43.42
2023-05-22T01:32:16.656Z,42.46
2023-05-22T01:35:15.669Z,42.63
2023-05-22T01:38:02.098Z,42.37
2023-05-22T01:40:49.727Z,42.23
2023-05-22T01:43:36.229Z,42.58
2023-05-22T01:46:25.272Z,42.50
2023-05-22T01:49:11.452Z,42.44
2023-05-22T01:52:18.904Z,43.11
2023-05-22T01:55:24.198Z,43.07
2023-05-22T01:58:45.494Z,43.08
2023-05-22T02:01:32.906Z,42.79
2023-05-22T02:04:22.956Z,42.83
2023-05-22T02:07:12.133Z,42.86
2023-05-22T02:10:00.704Z,42.60
2023-05-22T02:12:46.755Z,42.90
2023-05-22T02:15:33.596Z,42.80
2023-05-22T02:18:19.755Z,42.91
2023-05-22T02:21:08.652Z,42.85
2023-05-22T02:23:54.511Z,42.75
2023-05-22T02:26:40.521Z,42.77
2023-05-22T02:29:26.650Z,42.81
2023-05-22T02:32:12.876Z,42.73
2023-05-22T02:34:58.763Z,42.70
2023-05-22T02:37:46.536Z,42.55
2023-05-22T02:40:32.556Z,42.56
2023-05-22T02:43:18.625Z,42.74
2023-05-22T02:46:04.552Z,42.55
2023-05-22T02:48:50.876Z,42.71
2023-05-22T02:51:37.848Z,42.81
2023-05-22T02:54:23.923Z,42.84
2023-05-22T02:57:10.214Z,42.86
2023-05-22T02:59:57.845Z,43.00
2023-05-22T03:02:44.155Z,42.78
2023-05-22T03:05:30.013Z,42.85
2023-05-22T03:08:16.116Z,42.80
2023-05-22T03:11:02.154Z,42.82
2023-05-22T03:13:48.181Z,42.81
2023-05-22T03:16:34.657Z,42.93
2023-05-22T03:19:21.084Z,42.80
2023-05-22T03:22:07.464Z,42.76
2023-05-22T03:24:55.108Z,42.82
2023-05-22T03:27:41.348Z,42.85
2023-05-22T03:30:27.396Z,42.83
2023-05-22T03:33:25.793Z,42.90
2023-05-22T03:36:12.149Z,42.89
2023-05-22T03:38:58.026Z,42.99
2023-05-22T03:41:43.670Z,43.01
2023-05-22T03:45:04.776Z,43.01
2023-05-22T03:47:53.967Z,42.89
2023-05-22T03:50:42.067Z,43.08
2023-05-22T03:53:29.463Z,43.14
2023-05-22T03:56:15.551Z,43.11
2023-05-22T03:59:01.424Z,43.21
2023-05-22T04:01:47.252Z,43.12
2023-05-22T04:04:38.685Z,43.31
2023-05-22T04:07:24.989Z,43.25
2023-05-22T04:10:12.149Z,43.44
2023-05-22T04:12:59.561Z,43.30
2023-05-22T04:15:46.825Z,43.50
2023-05-22T04:18:32.819Z,43.47
2023-05-22T04:21:19.142Z,43.59
2023-05-22T04:24:07.540Z,43.70
2023-05-22T04:26:53.727Z,43.95
2023-05-22T04:29:41.607Z,43.80
2023-05-22T04:32:29.917Z,43.50
2023-05-22T04:35:18.649Z,43.89
2023-05-22T04:38:06.660Z,43.65
2023-05-22T04:40:53.014Z,43.64
2023-05-22T04:43:40.138Z,43.67
2023-05-22T04:46:26.123Z,43.59
2023-05-22T04:49:12.107Z,43.77
2023-05-22T04:51:57.915Z,43.77
2023-05-22T04:54:44.630Z,43.77
2023-05-22T04:57:31.392Z,44.00
2023-05-22T05:00:26.634Z,44.17
2023-05-22T05:03:13.239Z,44.15
2023-05-22T05:06:01.171Z,44.19
2023-05-22T05:08:48.270Z,44.29
2023-05-22T05:11:35.564Z,44.17
2023-05-22T05:14:21.920Z,44.25
2023-05-22T05:17:08.354Z,44.56
2023-05-22T05:19:54.488Z,44.26
2023-05-22T05:22:40.645Z,43.91
2023-05-22T05:25:28.508Z,44.12
2023-05-22T05:28:14.644Z,43.75
2023-05-22T05:31:01.918Z,43.87
2023-05-22T05:34:08.285Z,43.77
2023-05-22T05:37:18.143Z,43.72
2023-05-22T05:40:07.290Z,43.76
2023-05-22T05:42:55.483Z,43.86
2023-05-22T05:45:44.711Z,43.82
2023-05-22T05:48:30.701Z,43.67
2023-05-22T05:51:17.759Z,43.73
2023-05-22T05:54:05.341Z,43.78
2023-05-22T05:56:51.596Z,43.75
2023-05-22T05:59:37.533Z,43.63
2023-05-22T06:02:47.578Z,43.55
2023-05-22T06:05:55.812Z,43.65
2023-05-22T06:09:07.206Z,43.58
2023-05-22T06:12:15.376Z,43.48
2023-05-22T06:15:05.514Z,43.45
2023-05-22T06:17:52.315Z,43.16
2023-05-22T06:20:39.676Z,43.26
2023-05-22T06:23:26.519Z,43.38
2023-05-22T06:26:24.577Z,43.35
2023-05-22T06:29:11.262Z,43.25
2023-05-22T06:31:57.539Z,43.37
2023-05-22T06:34:45.647Z,43.09
2023-05-22T06:37:35.872Z,43.15
2023-05-22T06:40:22.620Z,43.09
2023-05-22T06:43:11.394Z,43.08
2023-05-22T06:46:07.131Z,43.85
2023-05-22T06:49:20.129Z,43.78
2023-05-22T06:52:11.053Z,43.66
2023-05-22T06:55:04.604Z,43.63
2023-05-22T06:57:55.048Z,43.69
2023-05-22T07:00:43.210Z,43.83
2023-05-22T07:03:38.908Z,43.45
2023-05-22T07:06:54.254Z,43.38
2023-05-22T07:09:42.240Z,43.26
2023-05-22T07:12:31.243Z,43.11
2023-05-22T07:15:17.798Z,42.79
2023-05-22T07:18:10.426Z,42.82
2023-05-22T07:20:59.359Z,42.61
2023-05-22T07:23:45.606Z,42.44
2023-05-22T07:26:31.846Z,42.69
2023-05-22T07:29:24.691Z,42.67
2023-05-22T07:32:12.911Z,42.32
2023-05-22T07:35:00.648Z,42.19
2023-05-22T07:37:48.217Z,41.98
2023-05-22T07:40:35.273Z,41.86
2023-05-22T07:43:23.078Z,41.59
2023-05-22T07:46:09.874Z,41.30
2023-05-22T07:49:04.791Z,41.14
2023-05-22T07:51:52.284Z,41.11
2023-05-22T07:54:42.289Z,40.66
2023-05-22T07:57:29.985Z,40.50
2023-05-22T08:00:21.239Z,40.44
2023-05-22T08:03:07.255Z,40.37
2023-05-22T08:05:53.318Z,40.18
2023-05-22T08:18:19.724Z,39.57
2023-05-22T08:21:05.840Z,39.33
2023-05-22T08:24:17.895Z,38.85
2023-05-22T08:27:04.660Z,39.03
2023-05-22T08:30:09.771Z,39.07
2023-05-22T08:34:13.505Z,38.20
2023-05-22T08:37:00.050Z,38.85
2023-05-22T08:39:46.226Z,38.46
2023-05-22T08:47:53.603Z,38.21
2023-05-22T08:50:44.099Z,38.34
2023-05-22T08:53:34.607Z,38.31
2023-05-22T08:56:23.076Z,37.98
2023-05-22T08:59:09.102Z,38.03
2023-05-22T09:01:55.260Z,37.89
2023-05-22T09:04:41.779Z,37.53
2023-05-22T09:07:27.994Z,37.29
2023-05-22T09:10:13.919Z,37.20
2023-05-22T09:13:10.000Z,37.27
2023-05-22T09:16:00.871Z,36.92
2023-05-22T09:18:46.908Z,37.22
2023-05-22T09:21:32.983Z,36.83
2023-05-22T09:24:18.921Z,36.84
2023-05-22T09:27:07.251Z,36.39
2023-05-22T09:29:56.730Z,36.21
2023-05-22T09:32:43.131Z,36.15
2023-05-22T09:35:31.742Z,35.72
2023-05-22T09:38:18.435Z,35.82
2023-05-22T09:41:04.458Z,35.67
2023-05-22T09:43:53.554Z,35.77
2023-05-22T09:46:45.905Z,35.48
2023-05-22T09:49:31.807Z,35.56
2023-05-22T09:52:18.406Z,35.27
2023-05-22T09:55:07.049Z,35.25
2023-05-22T09:57:52.985Z,35.12
2023-05-22T10:00:39.341Z,35.00
2023-05-22T10:03:27.315Z,34.81
2023-05-22T10:06:14.412Z,34.85
2023-05-22T10:09:05.859Z,34.63
2023-05-22T10:11:53.922Z,34.45
2023-05-22T10:14:39.944Z,34.40
2023-05-22T10:17:26.954Z,34.15
2023-05-22T10:20:13.539Z,34.17
2023-05-22T10:22:59.927Z,34.13
2023-05-22T10:25:47.251Z,33.91
2023-05-22T10:28:41.911Z,33.88
2023-05-22T10:31:44.599Z,33.53
2023-05-22T10:35:02.445Z,33.56
2023-05-22T10:37:55.427Z,33.69
2023-05-22T10:41:14.212Z,33.34
2023-05-22T10:44:02.901Z,33.77
2023-05-22T10:46:51.950Z,33.55
2023-05-22T10:49:39.277Z,33.30
2023-05-22T10:52:25.387Z,33.48
2023-05-22T10:55:11.929Z,33.28
2023-05-22T10:57:58.348Z,33.09
2023-05-22T11:00:45.124Z,33.13
2023-05-22T11:04:09.200Z,32.90
2023-05-22T11:07:05.656Z,32.88
2023-05-22T11:10:05.351Z,32.76
2023-05-22T11:13:11.601Z,32.54
2023-05-22T11:15:58.411Z,32.38
2023-05-22T11:18:45.290Z,32.28
2023-05-22T11:21:32.052Z,32.20
2023-05-22T11:24:18.890Z,31.92
2023-05-22T11:27:07.113Z,31.93
2023-05-22T11:29:54.719Z,31.79
2023-05-22T11:32:46.345Z,31.82
2023-05-22T11:35:32.863Z,31.97
2023-05-22T11:38:18.860Z,31.47
2023-05-22T11:41:05.709Z,31.62
2023-05-22T11:43:52.887Z,31.53
2023-05-22T11:46:39.868Z,31.38
2023-05-22T11:49:27.668Z,31.39
2023-05-22T11:52:14.071Z,31.22
2023-05-22T11:55:00.232Z,31.42
2023-05-22T11:57:48.118Z,31.40
2023-05-22T12:00:34.546Z,31.16
2023-05-22T12:03:21.268Z,31.06
2023-05-22T12:06:08.752Z,31.32
2023-05-22T12:08:55.071Z,31.14
2023-05-22T12:11:47.123Z,30.91
2023-05-22T12:14:33.300Z,30.63
2023-05-22T12:17:19.448Z,30.60
2023-05-22T12:20:07.397Z,30.49
2023-05-22T12:22:56.210Z,30.60
2023-05-22T12:25:43.323Z,30.46
2023-05-22T12:28:32.681Z,30.35
2023-05-22T12:31:25.160Z,30.30
2023-05-22T12:34:11.747Z,30.36
2023-05-22T12:36:58.733Z,30.39
2023-05-22T12:39:58.105Z,30.04
2023-05-22T12:42:45.131Z,30.21
2023-05-22T12:45:31.103Z,29.98
2023-05-22T12:48:17.971Z,30.01
2023-05-22T12:51:04.126Z,29.64
2023-05-22T12:53:51.179Z,29.31
2023-05-22T12:56:37.162Z,29.35
2023-05-22T12:59:23.408Z,28.97
2023-05-22T13:02:10.023Z,28.75
2023-05-22T13:04:55.836Z,28.85
2023-05-22T13:07:42.292Z,28.91
2023-05-22T13:10:28.394Z,28.45
2023-05-22T13:13:14.619Z,28.44
2023-05-22T13:16:01.092Z,28.15
2023-05-22T13:18:47.364Z,27.75
2023-05-22T13:21:33.704Z,27.18
2023-05-22T13:24:19.723Z,27.05
2023-05-22T13:27:06.103Z,26.87
2023-05-22T13:29:52.080Z,26.65
2023-05-22T13:32:38.400Z,26.50
2023-05-22T13:35:25.362Z,26.66
2023-05-22T13:38:11.209Z,26.40
2023-05-22T13:40:56.908Z,25.79
2023-05-22T13:43:42.923Z,25.21
2023-05-22T13:46:28.921Z,24.62
2023-05-22T13:49:15.319Z,24.22
2023-05-22T13:52:01.478Z,23.07
2023-05-22T13:54:47.772Z,22.74
2023-05-22T13:57:53.981Z,22.00
2023-05-22T14:00:40.111Z,21.68
2023-05-22T14:03:36.905Z,20.33
2023-05-22T14:06:23.531Z,21.06
2023-05-22T14:09:09.886Z,20.35
2023-05-22T14:12:38.864Z,16.95
2023-05-22T14:15:25.154Z,19.47
2023-05-22T14:18:11.870Z,19.22
2023-05-22T14:21:04.548Z,18.44
2023-05-22T14:24:02.568Z,17.54
2023-05-22T14:26:58.252Z,17.52
2023-05-22T14:29:44.584Z,17.75
2023-05-22T14:32:30.803Z,17.93
2023-05-22T14:35:19.102Z,17.27
2023-05-22T14:38:04.994Z,17.54
2023-05-22T14:40:52.119Z,17.74
2023-05-22T14:43:38.433Z,17.82
2023-05-22T14:46:24.562Z,18.48
2023-05-22T14:49:14.227Z,18.63
2023-05-22T14:52:00.471Z,19.10
2023-05-22T14:54:46.854Z,19.87
2023-05-22T14:57:33.010Z,20.20
2023-05-22T15:00:20.059Z,20.37
2023-05-22T15:03:06.021Z,20.59
2023-05-22T15:05:52.241Z,21.25
2023-05-22T15:08:38.359Z,21.24
2023-05-22T15:11:24.459Z,21.15
2023-05-22T15:14:10.700Z,21.38
2023-05-22T15:16:59.931Z,20.91
2023-05-22T15:19:45.852Z,20.16
2023-05-22T15:22:32.411Z,20.17
2023-05-22T15:25:18.095Z,20.02
2023-05-22T15:28:09.403Z,19.74
2023-05-22T15:30:57.033Z,20.24
2023-05-22T15:33:42.837Z,20.75
2023-05-22T15:36:29.446Z,20.98
2023-05-22T15:39:15.596Z,21.22
2023-05-22T15:42:22.227Z,20.78
2023-05-22T15:45:10.682Z,21.64
2023-05-22T15:48:20.149Z,21.79
2023-05-22T15:51:06.994Z,22.24
2023-05-22T15:53:53.270Z,22.38
2023-05-22T15:56:39.925Z,22.69
2023-05-22T15:59:25.807Z,23.17
2023-05-22T16:02:12.135Z,23.33
2023-05-22T16:04:58.359Z,23.60
2023-05-22T16:07:45.231Z,24.19
2023-05-22T16:10:32.064Z,24.28
2023-05-22T16:13:24.463Z,24.12
2023-05-22T16:16:10.447Z,24.72
2023-05-22T16:18:56.551Z,24.66
2023-05-22T16:21:45.509Z,25.00
2023-05-22T16:24:31.752Z,24.88
2023-05-22T16:27:17.803Z,24.98
2023-05-22T16:30:04.530Z,25.23
2023-05-22T16:32:50.875Z,25.31
2023-05-22T16:35:36.735Z,25.22
2023-05-22T16:38:22.662Z,25.17
2023-05-22T16:41:08.529Z,25.45
2023-05-22T16:43:54.563Z,25.10
2023-05-22T16:46:40.751Z,25.43
2023-05-22T16:49:27.100Z,25.36
2023-05-22T16:52:13.400Z,25.56
2023-05-22T16:54:59.770Z,25.34
2023-05-22T16:57:46.458Z,25.51
2023-05-22T17:00:32.623Z,25.36
2023-05-22T17:03:19.744Z,25.60
2023-05-22T17:06:06.217Z,25.95
2023-05-22T17:08:52.264Z,26.12
2023-05-22T17:11:38.288Z,26.11
2023-05-22T17:14:26.288Z,26.30
2023-05-22T17:21:48.314Z,26.52
2023-05-22T17:24:34.419Z,26.74
2023-05-22T17:27:35.035Z,26.66
2023-05-22T17:30:22.600Z,26.73
2023-05-22T17:33:08.671Z,27.01
2023-05-22T17:35:54.650Z,27.02
2023-05-22T17:38:40.813Z,27.21
2023-05-22T17:42:06.555Z,27.53
2023-05-22T17:44:52.803Z,27.61
2023-05-22T17:47:39.030Z,27.59
2023-05-22T17:50:25.496Z,27.62
2023-05-22T17:53:13.771Z,28.05
2023-05-22T17:56:00.126Z,28.36
2023-05-22T17:58:46.583Z,28.66
2023-05-22T18:02:10.109Z,28.87
2023-05-22T18:04:56.878Z,29.21
2023-05-22T18:07:43.685Z,29.58
2023-05-22T18:10:30.053Z,29.94
2023-05-22T18:13:16.384Z,30.27
2023-05-22T18:16:03.587Z,30.34
2023-05-22T18:18:49.867Z,30.64
2023-05-22T18:21:38.950Z,30.63
2023-05-22T18:24:27.866Z,30.71
2023-05-22T18:27:14.471Z,30.97
2023-05-22T18:30:02.134Z,31.19
2023-05-22T18:32:48.303Z,31.49
2023-05-22T18:35:34.687Z,31.49
2023-05-22T18:38:22.181Z,31.77
2023-05-22T18:41:08.186Z,31.87
2023-05-22T18:43:54.158Z,31.83
2023-05-22T18:46:40.293Z,31.76
2023-05-22T18:49:26.568Z,32.02
2023-05-22T18:52:12.886Z,32.20
2023-05-22T18:54:59.158Z,32.38
2023-05-22T18:57:47.138Z,32.48
2023-05-22T19:00:33.541Z,32.40
2023-05-22T19:03:19.758Z,32.66
2023-05-22T19:06:06.036Z,32.83
2023-05-22T19:08:52.835Z,32.91
2023-05-22T19:11:39.154Z,33.18
2023-05-22T19:14:25.056Z,33.27
2023-05-22T19:17:13.140Z,33.07
2023-05-22T19:20:00.344Z,33.60
2023-05-22T19:22:48.083Z,33.51
2023-05-22T19:25:34.398Z,33.51
2023-05-22T19:28:20.159Z,33.80
2023-05-22T19:31:06.484Z,33.92
2023-05-22T19:33:52.353Z,33.96
2023-05-22T19:36:38.420Z,34.22
2023-05-22T19:39:25.188Z,34.23
2023-05-22T19:42:12.407Z,34.16
2023-05-22T19:44:59.389Z,34.12
2023-05-22T19:47:45.375Z,34.45
2023-05-22T19:50:43.854Z,35.41
2023-05-22T19:53:32.564Z,34.46
2023-05-22T19:56:18.665Z,34.81
2023-05-22T19:59:05.924Z,35.21
2023-05-22T20:01:53.929Z,35.38
2023-05-22T20:04:43.199Z,35.08
2023-05-22T20:07:29.137Z,35.28
2023-05-22T20:10:16.596Z,35.45
2023-05-22T20:13:02.594Z,35.49
2023-05-22T20:15:51.472Z,35.67
2023-05-22T20:18:38.606Z,36.13
2023-05-22T20:21:24.885Z,36.11
2023-05-22T20:24:17.614Z,36.44
2023-05-22T20:27:07.158Z,36.37
2023-05-22T20:29:53.577Z,36.35
2023-05-22T20:32:40.382Z,36.57
2023-05-22T20:35:26.650Z,36.53
2023-05-22T20:38:14.419Z,36.74
2023-05-22T20:41:02.846Z,36.74
2023-05-22T20:43:49.081Z,36.70
2023-05-22T20:46:35.534Z,36.80
2023-05-22T20:49:21.915Z,37.14
2023-05-22T20:52:10.020Z,37.12
2023-05-22T20:54:58.856Z,37.47
2023-05-22T20:57:44.876Z,37.44
2023-05-22T21:00:31.214Z,37.51
2023-05-22T21:03:17.788Z,37.76
2023-05-22T21:06:03.744Z,37.66
2023-05-22T21:08:51.437Z,37.87
2023-05-22T21:11:39.554Z,37.98
2023-05-22T21:14:25.811Z,38.01
2023-05-22T21:17:12.011Z,38.12
2023-05-22T21:19:58.183Z,37.93
2023-05-22T21:22:44.444Z,38.26
2023-05-22T21:25:30.563Z,38.49
2023-05-22T21:28:16.734Z,38.53
2023-05-22T21:31:02.685Z,38.64
2023-05-22T21:33:48.864Z,38.78
2023-05-22T21:36:34.957Z,38.84
2023-05-22T21:39:22.413Z,38.95
2023-05-22T21:42:08.970Z,39.02
2023-05-22T21:44:54.945Z,39.13
2023-05-22T21:47:41.313Z,39.17
2023-05-22T21:50:27.203Z,39.21
2023-05-22T21:53:13.124Z,39.40
2023-05-22T21:55:59.041Z,39.35
2023-05-22T21:58:45.189Z,39.54
2023-05-22T22:01:31.402Z,39.66
2023-05-22T22:04:17.412Z,39.79
2023-05-22T22:07:04.073Z,39.82
2023-05-22T22:09:50.355Z,39.58
2023-05-22T22:12:36.438Z,39.83
2023-05-22T22:15:23.015Z,40.05
2023-05-22T22:18:09.884Z,40.20
2023-05-22T22:20:56.077Z,40.30
2023-05-22T22:23:42.080Z,40.37
2023-05-22T22:26:30.732Z,40.47
2023-05-22T22:29:25.314Z,40.46
2023-05-22T22:32:12.359Z,40.59
2023-05-22T22:34:58.166Z,40.58
2023-05-22T22:37:44.281Z,40.68
2023-05-22T22:40:31.926Z,40.73
2023-05-22T22:43:18.081Z,40.66
2023-05-22T22:46:04.499Z,40.69
2023-05-22T22:48:51.213Z,40.80
2023-05-22T22:51:37.475Z,40.79
2023-05-22T22:54:24.119Z,41.07
2023-05-22T22:57:10.380Z,41.00
2023-05-22T22:59:56.665Z,41.24
2023-05-22T23:02:44.991Z,41.19
2023-05-22T23:05:31.477Z,41.24
2023-05-22T23:08:18.490Z,41.18
2023-05-22T23:11:04.922Z,41.38
2023-05-22T23:13:50.818Z,41.32
2023-05-22T23:16:38.058Z,41.41
2023-05-22T23:19:24.354Z,41.51
2023-05-22T23:22:10.592Z,41.46
2023-05-22T23:24:56.374Z,41.56
2023-05-22T23:27:42.435Z,41.92
2023-05-22T23:30:28.475Z,41.73
2023-05-22T23:33:14.370Z,41.73
2023-05-22T23:36:00.906Z,41.86
2023-05-22T23:38:47.448Z,41.87
2023-05-22T23:41:33.865Z,41.91
2023-05-22T23:44:20.939Z,41.99
2023-05-22T23:47:07.189Z,41.93
2023-05-22T23:49:55.263Z,42.01
2023-05-22T23:52:41.167Z,42.26
2023-05-22T23:55:26.930Z,42.08
2023-05-22T23:58:12.763Z,42.16
